createdAt,value
2022-08-08T00:02:33.634Z,2.33
2022-08-08T00:09:07.790Z,2.40
2022-08-08T00:15:24.032Z,2.45
2022-08-08T00:22:30.356Z,2.67
2022-08-08T00:28:46.803Z,2.67
2022-08-08T00:35:15.423Z,2.40
2022-08-08T00:42:09.562Z,2.50
2022-08-08T00:48:59.148Z,2.35
2022-08-08T00:55:35.899Z,2.33
2022-08-08T01:03:16.085Z,3.00
2022-08-08T01:08:53.124Z,2.20
2022-08-08T01:15:17.395Z,2.60
2022-08-08T01:22:13.045Z,2.70
2022-08-08T01:28:43.440Z,3.10
2022-08-08T01:35:15.561Z,2.63
2022-08-08T01:41:38.104Z,2.63
2022-08-08T01:48:16.089Z,2.83
2022-08-08T01:55:25.652Z,2.90
2022-08-08T02:01:15.832Z,2.70
2022-08-08T02:07:55.357Z,3.75
2022-08-08T02:14:05.283Z,3.25
2022-08-08T02:21:01.251Z,2.92
2022-08-08T02:27:12.788Z,3.03
2022-08-08T02:33:21.695Z,3.10
2022-08-08T02:39:58.415Z,3.20
2022-08-08T02:46:30.821Z,2.90
2022-08-08T02:52:59.742Z,3.28
2022-08-08T02:59:57.562Z,3.40
2022-08-08T03:06:34.293Z,3.20
2022-08-08T03:13:33.953Z,3.30
2022-08-08T03:20:03.935Z,3.80
2022-08-08T03:26:06.174Z,3.30
2022-08-08T03:32:30.586Z,3.83
2022-08-08T03:38:57.738Z,3.20
2022-08-08T03:44:54.522Z,3.58
2022-08-08T03:50:57.299Z,3.72
2022-08-08T03:57:00.068Z,3.75
2022-08-08T04:03:26.079Z,3.72
2022-08-08T04:10:03.188Z,4.05
2022-08-08T04:16:07.276Z,4.10
2022-08-08T04:22:10.524Z,4.80
2022-08-08T04:28:40.255Z,5.07
2022-08-08T04:34:49.635Z,4.20
2022-08-08T04:40:57.993Z,4.15
2022-08-08T04:47:00.029Z,5.25
2022-08-08T04:53:05.136Z,4.93
2022-08-08T04:59:15.740Z,5.00
2022-08-08T05:05:20.509Z,5.15
2022-08-08T05:11:41.212Z,5.35
2022-08-08T05:17:54.469Z,4.78
2022-08-08T05:24:04.087Z,5.83
2022-08-08T05:30:06.843Z,4.75
2022-08-08T05:36:25.000Z,5.20
2022-08-08T05:42:40.773Z,6.30
2022-08-08T05:48:43.622Z,6.45
2022-08-08T05:55:01.023Z,5.75
2022-08-08T06:01:06.635Z,6.38
2022-08-08T06:07:11.164Z,6.10
2022-08-08T06:13:13.658Z,5.78
2022-08-08T06:19:16.981Z,5.50
2022-08-08T06:25:18.986Z,5.80
2022-08-08T06:32:09.548Z,5.78
2022-08-08T06:38:09.392Z,5.47
2022-08-08T06:44:23.024Z,4.85
2022-08-08T06:50:32.359Z,5.30
2022-08-08T06:56:36.283Z,4.80
2022-08-08T07:02:45.306Z,5.15
2022-08-08T07:08:52.017Z,5.00
2022-08-08T07:15:04.502Z,5.40
2022-08-08T07:21:18.680Z,5.38
2022-08-08T07:27:27.838Z,5.00
2022-08-08T07:33:53.322Z,4.93
2022-08-08T07:40:02.006Z,4.43
2022-08-08T07:46:23.529Z,4.90
2022-08-08T07:52:27.869Z,4.38
2022-08-08T07:58:40.336Z,3.83
2022-08-08T08:04:46.814Z,3.90
2022-08-08T08:10:55.376Z,3.30
2022-08-08T08:16:59.650Z,3.50
2022-08-08T08:23:01.393Z,3.78
2022-08-08T08:29:04.520Z,3.38
2022-08-08T08:35:08.458Z,3.45
2022-08-08T08:41:16.993Z,3.20
2022-08-08T08:47:21.940Z,3.45
2022-08-08T08:59:59.463Z,3.67
2022-08-08T09:06:04.107Z,3.83
2022-08-08T09:12:27.427Z,3.03
2022-08-08T09:18:32.782Z,3.55
2022-08-08T09:24:38.515Z,3.28
2022-08-08T09:30:44.482Z,3.90
2022-08-08T09:36:51.744Z,4.03
2022-08-08T09:43:40.453Z,3.72
2022-08-08T09:49:50.109Z,3.80
2022-08-08T09:56:04.409Z,3.53
2022-08-08T10:02:19.422Z,3.20
2022-08-08T10:08:21.310Z,3.10
2022-08-08T10:14:38.701Z,3.05
2022-08-08T10:20:57.521Z,2.92
2022-08-08T10:27:04.546Z,2.90
2022-08-08T10:33:09.788Z,2.72
2022-08-08T10:39:23.406Z,2.72
2022-08-08T10:45:56.570Z,2.70
2022-08-08T10:52:00.253Z,2.88
2022-08-08T10:58:07.438Z,2.67
2022-08-08T11:04:10.925Z,2.70
2022-08-08T11:10:19.854Z,2.13
2022-08-08T11:16:34.643Z,2.35
2022-08-08T11:22:38.218Z,2.30
2022-08-08T11:28:41.926Z,2.90
2022-08-08T11:35:08.758Z,2.17
2022-08-08T11:41:08.604Z,2.40
2022-08-08T11:47:12.968Z,2.30
2022-08-08T11:53:20.718Z,2.10
2022-08-08T12:00:01.738Z,2.20
2022-08-08T12:05:55.329Z,2.08
2022-08-08T12:11:57.162Z,1.88
2022-08-08T12:18:00.133Z,1.88
2022-08-08T12:24:13.518Z,2.10
2022-08-08T12:30:21.780Z,1.83
2022-08-08T12:36:28.467Z,1.80
2022-08-08T12:42:33.551Z,2.28
2022-08-08T12:48:38.836Z,1.90
2022-08-08T12:54:45.941Z,2.33
2022-08-08T13:00:51.732Z,1.85
2022-08-08T13:07:05.811Z,2.10
2022-08-08T13:13:08.143Z,1.80
2022-08-08T13:19:12.284Z,2.13
2022-08-08T13:25:24.077Z,1.98
2022-08-08T13:31:26.454Z,1.80
2022-08-08T13:38:05.559Z,2.00
2022-08-08T13:43:51.779Z,2.03
2022-08-08T13:50:34.978Z,2.28
2022-08-08T13:56:30.589Z,1.60
2022-08-08T14:08:46.599Z,1.80
2022-08-08T14:14:49.430Z,2.00
2022-08-08T14:21:02.549Z,1.70
2022-08-08T14:33:12.870Z,2.05
2022-08-08T14:39:20.955Z,2.13
2022-08-08T14:46:01.453Z,1.95
2022-08-08T14:51:53.056Z,2.30
2022-08-08T14:58:02.661Z,1.77
2022-08-08T15:04:09.506Z,2.00
2022-08-08T15:10:13.006Z,2.60
2022-08-08T15:16:16.208Z,1.95
2022-08-08T15:22:23.700Z,1.95
2022-08-08T15:28:33.876Z,2.00
2022-08-08T15:34:36.588Z,2.60
2022-08-08T15:40:40.917Z,1.70
2022-08-08T15:46:50.572Z,2.10
2022-08-08T15:52:53.006Z,2.22
2022-08-08T15:58:54.733Z,2.08
2022-08-08T16:04:58.865Z,2.20
2022-08-08T16:13:04.465Z,2.53
2022-08-08T16:17:38.690Z,1.92
2022-08-08T16:23:44.647Z,2.00
2022-08-08T16:30:14.340Z,2.30
2022-08-08T16:36:09.813Z,2.20
2022-08-08T16:42:18.648Z,2.05
2022-08-08T16:48:21.024Z,2.20
2022-08-08T16:55:04.080Z,1.75
2022-08-08T17:00:48.642Z,1.95
2022-08-08T17:06:53.243Z,1.80
2022-08-08T17:12:55.878Z,1.80
2022-08-08T17:18:58.478Z,2.10
2022-08-08T17:25:02.938Z,1.73
2022-08-08T17:31:39.490Z,1.67
2022-08-08T17:37:27.811Z,2.03
2022-08-08T17:43:29.704Z,1.80
2022-08-08T17:49:42.697Z,1.60
2022-08-08T17:56:05.650Z,1.60
2022-08-08T18:02:11.166Z,1.60
2022-08-08T18:08:24.456Z,1.55
2022-08-08T18:14:41.392Z,1.80
2022-08-08T18:20:54.762Z,1.55
2022-08-08T18:27:06.227Z,1.58
2022-08-08T18:33:36.921Z,1.60
2022-08-08T18:39:42.276Z,1.35
2022-08-08T18:46:52.913Z,1.70
2022-08-08T18:52:06.566Z,1.30
2022-08-08T18:58:08.561Z,1.23
2022-08-08T19:04:12.817Z,1.10
2022-08-08T19:10:16.251Z,0.93
2022-08-08T19:22:22.083Z,1.07
2022-08-08T19:28:24.602Z,0.90
2022-08-08T19:34:36.428Z,0.90
2022-08-08T19:40:41.277Z,1.10
2022-08-08T19:46:45.725Z,1.27
2022-08-08T19:52:59.272Z,1.08
2022-08-08T19:59:01.472Z,1.20
2022-08-08T20:05:07.314Z,1.08
2022-08-08T20:11:14.731Z,1.08
2022-08-08T20:17:27.698Z,0.98
2022-08-08T20:23:31.039Z,0.98
2022-08-08T20:29:55.401Z,1.48
2022-08-08T20:36:06.450Z,0.93
2022-08-08T20:42:10.429Z,1.03
2022-08-08T20:48:12.232Z,1.00
2022-08-08T20:54:27.364Z,1.23
2022-08-08T21:00:30.329Z,1.02
2022-08-08T21:06:52.760Z,1.00
2022-08-08T21:12:54.793Z,1.13
2022-08-08T21:18:57.521Z,0.93
2022-08-08T21:24:59.320Z,1.48
2022-08-08T21:31:05.998Z,1.15
2022-08-08T21:37:22.849Z,1.08
2022-08-08T21:43:44.708Z,1.00
2022-08-08T21:49:48.215Z,0.82
2022-08-08T21:56:25.995Z,0.95
2022-08-08T22:02:12.601Z,1.42
2022-08-08T22:08:14.470Z,1.10
2022-08-08T22:14:16.656Z,1.27
2022-08-08T22:20:24.107Z,0.70
2022-08-08T22:26:31.133Z,1.30
2022-08-08T22:32:32.993Z,1.10
2022-08-08T22:38:35.862Z,0.90
2022-08-08T22:44:38.205Z,1.00
2022-08-08T22:50:41.047Z,0.98
2022-08-08T22:56:42.803Z,1.10
2022-08-08T23:02:50.232Z,0.90
2022-08-08T23:08:55.563Z,1.10
2022-08-08T23:16:37.052Z,1.25
2022-08-08T23:21:23.281Z,1.08
2022-08-08T23:27:37.813Z,0.90
2022-08-08T23:34:17.789Z,1.13
2022-08-08T23:40:09.825Z,1.13
2022-08-08T23:49:04.761Z,1.13
2022-08-08T23:52:34.291Z,1.38
2022-08-08T23:58:37.981Z,1.48
